メインページ
METAR-TAF:

METAR-TAF

空港 :

ルイス・ムニョス・マリン国際空港

サンフアン, プエルトリコ, アメリカ合衆国

緯度: 18-27N, 経度: 066-00W, 海抜: 3m

現時点の気象観測

当レポートは52分前の11:56(UTC)に作成
無風
気温 27°C
湿度 84%
気圧 1015 hPa
視程: 16.1km
高度2400ftの雲は散在している
高度4800ftの雲は散在している
高度6000ftの雲は散在している

METAR: TJSJ 261156Z 00000KT 10SM SCT024 SCT048 SCT060 27/24 A2997 RMK AO2 SLP147 VCSH NW-N 60007 70008 T02720239 10272 20250 53013

時間: 08:48 (12:48 UTC)

予報

当レポートは47分前の12:01(UTC)に作成
予報は26日の 12時(UTC)から 27日の 12時(UTC)まで有効
の風 5kt
視程: 10km
高度2500ftの雲はほとんどない, 積乱雲.
高度4000ftの雲は散在している
高度7000ftの千切れ雲あり
弱いにわか雨, 近辺で激しい雷雨
26日の 1400時(UTC)から
東/北東の風 14kt
視程: 10km
高度3000ftの雲は散在している
高度6000ftの雲は散在している
高度9000ftの雲は散在している
26日の 1800時(UTC)から
東/北東の風 16kt
視程: 10km
高度2500ftの雲はほとんどない, 積乱雲.
高度5000ftの千切れ雲あり
近辺で激しい雷雨
26日の 2330時(UTC)から
の風 7kt
視程: 10km
高度3000ftの雲はほとんどない
高度6000ftの雲は散在している

TAF: TJSJ 261201Z 2612/2712 10005KT P6SM -SHRA VCTS FEW025CB SCT040 BKN070 FM261400 07014KT P6SM SCT030 SCT060 SCT090 FM261800 06016KT P6SM VCTS FEW025CB BKN050 FM262330 08007KT P6SM FEW030 SCT060

4,000以上の空港の気象観測と天気予報(METAR報とTAF報)

利用可能な観測所は地図上に黄色い丸と赤い丸で示す。

丸の上にカーソルを重ねると観測所名を参照できる。

次にクリックすると気象観測と天気予報を参照できる。

マップの切り替え:黒色「×」印の緑ボタンをクリックして拡大、「-」印の緑ボタンをクリックして縮小、緑色の三角印をクリックして隣りの地図に切り替え


METAR-TAF: